createdAt,value
2018-05-18T00:01:08.275Z,23.30
2018-05-18T00:03:36.548Z,23.30
2018-05-18T00:06:04.040Z,23.30
2018-05-18T00:08:31.548Z,23.30
2018-05-18T00:10:59.825Z,23.30
2018-05-18T00:13:27.311Z,23.30
2018-05-18T00:15:55.591Z,23.30
2018-05-18T00:18:23.841Z,23.30
2018-05-18T00:20:51.349Z,23.30
2018-05-18T00:23:18.826Z,23.30
2018-05-18T00:25:46.350Z,23.30
2018-05-18T00:28:13.833Z,23.30
2018-05-18T00:30:41.338Z,23.20
2018-05-18T00:33:08.835Z,23.30
2018-05-18T00:35:36.372Z,23.20
2018-05-18T00:38:04.621Z,23.20
2018-05-18T00:40:32.091Z,23.20
2018-05-18T00:43:00.461Z,23.30
2018-05-18T00:45:27.936Z,23.20
2018-05-18T00:47:56.213Z,23.20
2018-05-18T00:50:24.451Z,23.20
2018-05-18T00:52:52.766Z,23.20
2018-05-18T00:55:33.092Z,23.20
2018-05-18T00:58:02.100Z,23.20
2018-05-18T01:00:29.595Z,23.20
2018-05-18T01:02:57.122Z,23.20
2018-05-18T01:05:24.696Z,23.20
2018-05-18T01:07:52.971Z,23.20
2018-05-18T01:10:21.214Z,23.20
2018-05-18T01:12:49.464Z,23.10
2018-05-18T01:15:16.984Z,23.10
2018-05-18T01:17:45.245Z,23.20
2018-05-18T01:20:13.502Z,23.20
2018-05-18T01:22:40.995Z,23.10
2018-05-18T01:25:11.752Z,23.20
2018-05-18T01:27:39.249Z,23.10
2018-05-18T01:30:06.772Z,23.20
2018-05-18T01:32:34.236Z,23.10
2018-05-18T01:35:01.722Z,23.10
2018-05-18T01:37:29.249Z,23.10
2018-05-18T01:39:56.745Z,23.10
2018-05-18T01:42:24.218Z,23.10
2018-05-18T01:44:52.499Z,23.10
2018-05-18T01:47:20.741Z,23.10
2018-05-18T01:49:48.228Z,23.10
2018-05-18T01:52:15.733Z,23.10
2018-05-18T01:54:43.189Z,23.10
2018-05-18T01:57:10.683Z,23.10
2018-05-18T01:59:38.211Z,23.10
2018-05-18T02:02:05.688Z,23.10
2018-05-18T02:04:33.169Z,23.20
2018-05-18T02:07:00.711Z,23.10
2018-05-18T02:09:28.180Z,23.10
2018-05-18T02:11:55.643Z,23.10
2018-05-18T02:14:23.214Z,23.10
2018-05-18T02:16:51.445Z,23.10
2018-05-18T02:19:18.931Z,23.10
2018-05-18T02:21:46.434Z,23.10
2018-05-18T02:24:13.927Z,23.10
2018-05-18T02:26:41.539Z,23.10
2018-05-18T02:29:09.113Z,23.10
2018-05-18T02:31:36.650Z,23.00
2018-05-18T02:34:04.917Z,23.10
2018-05-18T02:36:33.211Z,23.00
2018-05-18T02:39:00.715Z,23.00
2018-05-18T02:41:28.313Z,23.00
2018-05-18T02:43:56.605Z,23.00
2018-05-18T02:46:24.169Z,23.00
2018-05-18T02:48:51.685Z,23.00
2018-05-18T02:51:19.175Z,23.00
2018-05-18T02:53:46.778Z,23.00
2018-05-18T02:56:14.271Z,23.00
2018-05-18T02:58:41.738Z,23.00
2018-05-18T03:01:10.011Z,23.00
2018-05-18T03:03:37.539Z,23.00
2018-05-18T03:06:05.063Z,22.90
2018-05-18T03:08:32.600Z,23.00
2018-05-18T03:11:00.104Z,23.00
2018-05-18T03:13:27.613Z,22.90
2018-05-18T03:15:55.869Z,22.90
2018-05-18T03:18:23.363Z,22.90
2018-05-18T03:20:50.888Z,22.90
2018-05-18T03:23:19.139Z,22.90
2018-05-18T03:25:46.601Z,22.90
2018-05-18T03:28:14.181Z,22.90
2018-05-18T03:30:41.792Z,22.90
2018-05-18T03:33:09.330Z,22.90
2018-05-18T03:35:36.896Z,23.00
2018-05-18T03:38:04.488Z,22.90
2018-05-18T03:40:32.018Z,23.00
2018-05-18T03:42:59.583Z,22.90
2018-05-18T03:45:27.132Z,22.90
2018-05-18T03:47:54.625Z,22.90
2018-05-18T03:50:22.137Z,22.90
2018-05-18T03:52:49.635Z,22.90
2018-05-18T03:55:17.178Z,22.90
2018-05-18T03:57:44.722Z,22.90
2018-05-18T04:00:12.230Z,22.90
2018-05-18T04:02:51.332Z,22.90
2018-05-18T04:05:30.629Z,22.90
2018-05-18T04:08:10.917Z,23.00
2018-05-18T04:10:38.394Z,22.90
2018-05-18T04:13:05.900Z,22.90
2018-05-18T04:15:33.398Z,22.90
2018-05-18T04:18:00.868Z,22.90
2018-05-18T04:20:28.404Z,22.90
2018-05-18T04:22:55.901Z,22.90
2018-05-18T04:25:23.388Z,22.90
2018-05-18T04:27:50.931Z,22.90
2018-05-18T04:30:19.198Z,22.90
2018-05-18T04:32:46.702Z,22.90
2018-05-18T04:35:14.227Z,22.90
2018-05-18T04:37:41.716Z,22.90
2018-05-18T04:40:09.252Z,22.90
2018-05-18T04:42:37.530Z,22.90
2018-05-18T04:45:05.783Z,22.90
2018-05-18T04:47:33.308Z,22.90
2018-05-18T04:50:00.806Z,22.90
2018-05-18T04:52:28.302Z,22.90
2018-05-18T04:54:55.833Z,22.90
2018-05-18T04:57:24.089Z,22.90
2018-05-18T04:59:51.796Z,22.90
2018-05-18T05:02:19.338Z,22.90
2018-05-18T05:04:47.568Z,22.90
2018-05-18T05:07:15.039Z,22.90
2018-05-18T05:09:42.558Z,23.00
2018-05-18T05:12:10.089Z,22.90
2018-05-18T05:14:38.340Z,23.00
2018-05-18T05:17:06.546Z,22.90
2018-05-18T05:19:34.841Z,23.00
2018-05-18T05:22:02.321Z,23.00
2018-05-18T05:24:29.850Z,23.00
2018-05-18T05:26:57.366Z,23.10
2018-05-18T05:29:24.840Z,23.10
2018-05-18T05:31:53.148Z,23.20
2018-05-18T05:34:20.633Z,23.20
2018-05-18T05:36:48.129Z,23.30
2018-05-18T05:39:15.603Z,23.30
2018-05-18T05:41:43.066Z,23.40
2018-05-18T05:44:10.598Z,23.50
2018-05-18T05:46:38.066Z,23.60
2018-05-18T05:49:06.302Z,23.60
2018-05-18T05:51:33.907Z,23.60
2018-05-18T05:54:01.358Z,23.60
2018-05-18T05:56:29.590Z,23.70
2018-05-18T05:58:57.105Z,23.60
2018-05-18T06:01:24.654Z,23.60
2018-05-18T06:03:52.900Z,23.60
2018-05-18T06:06:20.399Z,23.70
2018-05-18T06:08:48.658Z,23.60
2018-05-18T06:11:16.976Z,23.60
2018-05-18T06:13:44.477Z,23.60
2018-05-18T06:16:11.961Z,23.50
2018-05-18T06:18:40.256Z,23.50
2018-05-18T06:21:07.707Z,23.50
2018-05-18T06:23:35.181Z,23.50
2018-05-18T06:26:02.683Z,23.60
2018-05-18T06:28:30.138Z,23.60
2018-05-18T06:30:57.684Z,23.50
2018-05-18T06:33:25.188Z,23.50
2018-05-18T06:35:53.444Z,23.60
2018-05-18T06:38:20.955Z,23.50
2018-05-18T06:40:48.458Z,23.60
2018-05-18T06:43:16.043Z,23.60
2018-05-18T06:45:43.571Z,23.50
2018-05-18T06:48:11.787Z,23.50
2018-05-18T06:50:39.272Z,23.50
2018-05-18T06:53:06.786Z,23.50
2018-05-18T06:55:35.028Z,23.40
2018-05-18T06:58:03.289Z,23.40
2018-05-18T07:00:30.819Z,23.40
2018-05-18T07:05:32.263Z,23.40
2018-05-18T07:08:00.503Z,23.40
2018-05-18T07:10:28.009Z,23.40
2018-05-18T07:12:55.526Z,23.40
2018-05-18T07:15:23.030Z,23.40
2018-05-18T07:17:50.510Z,23.40
2018-05-18T07:20:18.032Z,23.40
2018-05-18T07:22:46.295Z,23.40
2018-05-18T07:25:14.547Z,23.30
2018-05-18T07:27:42.078Z,23.30
2018-05-18T07:30:09.584Z,23.40
2018-05-18T07:32:37.025Z,23.30
2018-05-18T07:35:04.546Z,23.40
2018-05-18T07:37:32.008Z,23.40
2018-05-18T07:39:59.450Z,23.40
2018-05-18T07:42:26.972Z,23.40
2018-05-18T07:44:55.212Z,23.40
2018-05-18T07:47:22.700Z,23.40
2018-05-18T07:49:50.195Z,23.40
2018-05-18T07:52:17.746Z,23.40
2018-05-18T07:54:45.212Z,23.40
2018-05-18T07:57:12.674Z,23.40
2018-05-18T07:59:40.178Z,23.40
2018-05-18T08:02:07.654Z,23.40
2018-05-18T08:04:35.109Z,23.40
2018-05-18T08:07:02.620Z,23.40
2018-05-18T08:09:30.076Z,23.40
2018-05-18T08:11:57.522Z,23.40
2018-05-18T08:14:25.034Z,23.40
2018-05-18T08:16:53.995Z,23.40
2018-05-18T08:19:21.502Z,23.40
2018-05-18T08:21:49.015Z,23.40
2018-05-18T08:24:16.526Z,23.30
2018-05-18T08:26:44.019Z,23.40
2018-05-18T08:29:23.312Z,23.40
2018-05-18T08:31:50.787Z,23.40
2018-05-18T08:34:18.568Z,23.40
2018-05-18T08:36:46.092Z,23.40
2018-05-18T08:39:13.621Z,23.40
2018-05-18T08:41:41.089Z,23.40
2018-05-18T08:44:08.569Z,23.40
2018-05-18T08:46:36.114Z,23.40
2018-05-18T08:49:03.570Z,23.40
2018-05-18T08:51:31.036Z,23.40
2018-05-18T08:54:00.257Z,23.40
2018-05-18T08:56:27.724Z,23.40
2018-05-18T08:58:55.810Z,23.40
2018-05-18T09:01:23.569Z,23.40
2018-05-18T09:03:51.054Z,23.40
2018-05-18T09:06:18.536Z,23.40
2018-05-18T09:08:46.087Z,23.40
2018-05-18T09:11:13.540Z,23.40
2018-05-18T09:13:41.060Z,23.40
2018-05-18T09:16:08.609Z,23.40
2018-05-18T09:18:36.410Z,23.40
2018-05-18T09:21:03.926Z,23.50
2018-05-18T09:23:31.465Z,23.50
2018-05-18T09:25:59.711Z,23.50
2018-05-18T09:28:27.216Z,23.50
2018-05-18T09:30:54.730Z,23.50
2018-05-18T09:33:22.189Z,23.50
2018-05-18T09:35:49.770Z,23.40
2018-05-18T09:38:18.133Z,23.50
2018-05-18T09:40:45.771Z,23.50
2018-05-18T09:43:14.553Z,23.50
2018-05-18T09:45:42.111Z,23.50
2018-05-18T09:48:09.657Z,23.50
2018-05-18T09:50:37.136Z,23.40
2018-05-18T09:53:04.635Z,23.40
2018-05-18T09:55:33.129Z,23.40
2018-05-18T09:58:00.463Z,23.40
2018-05-18T10:00:30.729Z,23.40
2018-05-18T10:02:58.266Z,23.40
2018-05-18T10:05:25.759Z,23.40
2018-05-18T10:07:53.260Z,23.40
2018-05-18T10:10:21.589Z,23.40
2018-05-18T10:12:49.135Z,23.40
2018-05-18T10:15:16.694Z,23.40
2018-05-18T10:17:44.173Z,23.40
2018-05-18T10:20:11.645Z,23.40
2018-05-18T10:22:39.151Z,23.40
2018-05-18T10:25:06.628Z,23.40
2018-05-18T10:27:34.155Z,23.40
2018-05-18T10:30:02.418Z,23.40
2018-05-18T10:32:29.875Z,23.40
2018-05-18T10:34:58.180Z,23.40
2018-05-18T10:37:25.634Z,23.40
2018-05-18T10:39:53.112Z,23.40
2018-05-18T10:42:20.616Z,23.40
2018-05-18T10:44:48.875Z,23.50
2018-05-18T10:47:16.340Z,23.40
2018-05-18T10:49:44.746Z,23.50
2018-05-18T10:52:12.213Z,23.40
2018-05-18T10:54:40.503Z,23.40
2018-05-18T10:57:07.991Z,23.40
2018-05-18T10:59:35.486Z,23.40
2018-05-18T11:02:03.049Z,23.50
2018-05-18T11:04:30.547Z,23.40
2018-05-18T11:06:58.105Z,23.40
2018-05-18T11:09:25.528Z,23.50
2018-05-18T11:11:53.779Z,23.50
2018-05-18T11:14:21.384Z,23.50
2018-05-18T11:16:48.776Z,23.50
2018-05-18T11:19:16.228Z,23.50
2018-05-18T11:21:43.774Z,23.50
2018-05-18T11:24:11.256Z,23.50
2018-05-18T11:26:38.755Z,23.50
2018-05-18T11:29:07.051Z,23.50
2018-05-18T11:31:34.508Z,23.50
2018-05-18T11:34:01.981Z,23.50
2018-05-18T11:36:29.518Z,23.50
2018-05-18T11:38:56.973Z,23.50
2018-05-18T11:41:25.205Z,23.50
2018-05-18T11:43:52.718Z,23.50
2018-05-18T11:46:20.201Z,23.50
2018-05-18T11:48:47.785Z,23.50
2018-05-18T11:51:15.267Z,23.50
2018-05-18T11:53:43.503Z,23.50
2018-05-18T11:56:11.012Z,23.50
2018-05-18T11:58:39.252Z,23.50
2018-05-18T12:01:06.722Z,23.50
2018-05-18T12:03:34.283Z,23.50
2018-05-18T12:06:01.755Z,23.50
2018-05-18T12:08:29.985Z,23.50
2018-05-18T12:10:57.505Z,23.50
2018-05-18T12:13:24.968Z,23.50
2018-05-18T12:15:52.427Z,23.50
2018-05-18T12:18:19.970Z,23.50
2018-05-18T12:20:48.277Z,23.50
2018-05-18T12:23:15.829Z,23.50
2018-05-18T12:25:43.327Z,23.50
2018-05-18T12:28:10.780Z,23.50
2018-05-18T12:30:39.821Z,23.50
2018-05-18T12:33:08.030Z,23.50
2018-05-18T12:35:35.526Z,23.50
2018-05-18T12:38:03.133Z,23.50
2018-05-18T12:40:30.580Z,23.50
2018-05-18T12:42:58.118Z,23.50
2018-05-18T12:45:26.398Z,23.50
2018-05-18T12:47:54.635Z,23.50
2018-05-18T12:50:22.156Z,23.50
2018-05-18T12:52:49.622Z,23.50
2018-05-18T12:55:17.095Z,23.50
2018-05-18T12:57:44.621Z,23.50
2018-05-18T13:00:12.090Z,23.50
2018-05-18T13:02:39.588Z,23.50
2018-05-18T13:05:07.930Z,23.50
2018-05-18T13:07:35.500Z,23.50
2018-05-18T13:10:02.938Z,23.50
2018-05-18T13:12:30.541Z,23.50
2018-05-18T13:14:58.015Z,23.50
2018-05-18T13:17:25.479Z,23.50
2018-05-18T13:19:53.787Z,23.50
2018-05-18T13:22:21.238Z,23.50
2018-05-18T13:24:48.734Z,23.60
2018-05-18T13:27:16.202Z,23.60
2018-05-18T13:29:43.763Z,23.50
2018-05-18T13:32:11.272Z,23.50
2018-05-18T13:34:38.777Z,23.60
2018-05-18T13:37:06.244Z,23.60
2018-05-18T13:39:33.706Z,23.60
2018-05-18T13:42:01.230Z,23.60
2018-05-18T13:44:28.747Z,23.60
2018-05-18T13:46:56.962Z,23.60
2018-05-18T13:49:24.483Z,23.60
2018-05-18T13:51:52.849Z,23.60
2018-05-18T13:54:20.988Z,23.60
2018-05-18T13:56:48.491Z,23.60
2018-05-18T13:59:16.968Z,23.60
2018-05-18T14:01:45.247Z,23.60
2018-05-18T14:04:13.512Z,23.60
2018-05-18T14:06:41.726Z,23.60
2018-05-18T14:11:45.961Z,23.60
2018-05-18T14:14:14.298Z,23.60
2018-05-18T14:16:42.561Z,23.60
2018-05-18T14:19:10.023Z,23.60
2018-05-18T14:21:37.566Z,23.60
2018-05-18T14:24:05.152Z,23.60
2018-05-18T14:26:33.430Z,23.70
2018-05-18T14:29:01.767Z,23.60
2018-05-18T14:31:29.299Z,23.70
2018-05-18T14:33:56.800Z,23.70
2018-05-18T14:36:24.526Z,23.70
2018-05-18T14:38:52.035Z,23.70
2018-05-18T14:41:19.508Z,23.70
2018-05-18T14:43:47.814Z,23.70
2018-05-18T14:46:15.290Z,23.70
2018-05-18T14:48:42.753Z,23.70
2018-05-18T14:51:10.370Z,23.70
2018-05-18T14:53:38.625Z,23.70
2018-05-18T14:56:06.898Z,23.70
2018-05-18T14:58:34.460Z,23.70
2018-05-18T15:01:01.905Z,23.70
2018-05-18T15:03:29.488Z,23.70
2018-05-18T15:05:57.737Z,23.70
2018-05-18T15:08:25.339Z,23.70
2018-05-18T15:10:53.784Z,23.70
2018-05-18T15:13:21.980Z,23.80
2018-05-18T15:15:50.215Z,23.80
2018-05-18T15:18:17.806Z,23.80
2018-05-18T15:20:46.079Z,23.80
2018-05-18T15:23:13.664Z,23.80
2018-05-18T15:25:41.169Z,23.80
2018-05-18T15:28:08.763Z,23.80
2018-05-18T15:30:36.325Z,23.80
2018-05-18T15:33:04.739Z,23.80
2018-05-18T15:35:32.248Z,23.80
2018-05-18T15:37:59.719Z,23.80
2018-05-18T15:40:28.091Z,23.80
2018-05-18T15:42:55.544Z,23.70
2018-05-18T15:45:23.004Z,23.70
2018-05-18T15:47:50.566Z,23.80
2018-05-18T15:50:18.822Z,23.80
2018-05-18T15:52:46.300Z,23.80
2018-05-18T15:55:14.563Z,23.80
2018-05-18T15:57:42.177Z,23.80
2018-05-18T16:00:09.637Z,23.80
2018-05-18T16:02:37.084Z,23.80
2018-05-18T16:05:04.607Z,23.80
2018-05-18T16:07:32.179Z,23.80
2018-05-18T16:09:59.721Z,23.80
2018-05-18T16:12:27.269Z,23.80
2018-05-18T16:14:54.825Z,23.80
2018-05-18T16:17:22.341Z,23.80
2018-05-18T16:19:49.891Z,23.80
2018-05-18T16:22:17.461Z,23.80
2018-05-18T16:24:44.988Z,23.80
2018-05-18T16:27:13.238Z,23.80
2018-05-18T16:29:40.761Z,23.80
2018-05-18T16:32:08.261Z,23.90
2018-05-18T16:34:35.716Z,23.80
2018-05-18T16:37:03.305Z,23.80
2018-05-18T16:39:30.889Z,23.70
2018-05-18T16:41:58.427Z,23.80
2018-05-18T16:44:26.760Z,23.70
2018-05-18T16:46:54.335Z,23.70
2018-05-18T16:49:21.810Z,23.70
2018-05-18T16:51:50.071Z,23.70
2018-05-18T16:54:18.370Z,23.70
2018-05-18T16:56:46.580Z,23.70
2018-05-18T16:59:14.118Z,23.60
2018-05-18T17:01:41.636Z,23.60
2018-05-18T17:04:09.929Z,23.60
2018-05-18T17:06:37.538Z,23.60
2018-05-18T17:09:05.744Z,23.60
2018-05-18T17:11:33.191Z,23.60
2018-05-18T17:14:00.779Z,23.60
2018-05-18T17:16:28.427Z,23.60
2018-05-18T17:18:55.985Z,23.60
2018-05-18T17:21:23.512Z,23.60
2018-05-18T17:23:50.996Z,23.60
2018-05-18T17:26:19.984Z,23.60
2018-05-18T17:28:48.276Z,23.60
2018-05-18T17:31:15.887Z,23.60
2018-05-18T17:33:43.450Z,23.60
2018-05-18T17:36:11.488Z,23.50
2018-05-18T17:38:39.754Z,23.50
2018-05-18T17:41:08.001Z,23.50
2018-05-18T17:43:35.470Z,23.50
2018-05-18T17:46:02.986Z,23.50
2018-05-18T17:48:30.486Z,23.50
2018-05-18T17:50:57.979Z,23.50
2018-05-18T17:53:26.361Z,23.50
2018-05-18T17:55:54.617Z,23.50
2018-05-18T17:58:22.845Z,23.50
2018-05-18T18:00:50.343Z,23.50
2018-05-18T18:03:17.827Z,23.50
2018-05-18T18:05:46.065Z,23.50
2018-05-18T18:08:13.581Z,23.50
2018-05-18T18:10:41.038Z,23.50
2018-05-18T18:13:08.499Z,23.50
2018-05-18T18:15:36.111Z,23.50
2018-05-18T18:18:04.368Z,23.50
2018-05-18T18:20:31.892Z,23.40
2018-05-18T18:22:59.393Z,23.50
2018-05-18T18:25:26.956Z,23.50
2018-05-18T18:27:54.422Z,23.40
2018-05-18T18:30:21.881Z,23.40
2018-05-18T18:32:50.158Z,23.40
2018-05-18T18:35:17.701Z,23.40
2018-05-18T18:37:45.246Z,23.40
2018-05-18T18:40:12.715Z,23.50
2018-05-18T18:42:40.274Z,23.40
2018-05-18T18:45:07.746Z,23.40
2018-05-18T18:47:35.252Z,23.40
2018-05-18T18:50:02.774Z,23.40
2018-05-18T18:52:31.056Z,23.40
2018-05-18T18:54:59.300Z,23.40
2018-05-18T18:57:26.831Z,23.40
2018-05-18T18:59:54.307Z,23.40
2018-05-18T19:02:21.882Z,23.40
2018-05-18T19:04:49.497Z,23.40
2018-05-18T19:07:16.952Z,23.40
2018-05-18T19:09:44.395Z,23.40
2018-05-18T19:12:12.012Z,23.40
2018-05-18T19:14:39.502Z,23.40
2018-05-18T19:17:07.710Z,23.40
2018-05-18T19:19:35.235Z,23.40
2018-05-18T19:22:03.471Z,23.40
2018-05-18T19:24:30.934Z,23.40
2018-05-18T19:26:58.455Z,23.40
2018-05-18T19:29:26.009Z,23.40
2018-05-18T19:31:53.455Z,23.40
2018-05-18T19:34:20.997Z,23.40
2018-05-18T19:36:49.266Z,23.40
2018-05-18T19:39:16.751Z,23.40
2018-05-18T19:41:44.288Z,23.40
2018-05-18T19:44:12.528Z,23.40
2018-05-18T19:46:39.999Z,23.40
2018-05-18T19:49:07.496Z,23.40
2018-05-18T19:51:34.969Z,23.40
2018-05-18T19:54:02.492Z,23.30
2018-05-18T19:56:30.742Z,23.40
2018-05-18T19:58:58.225Z,23.40
2018-05-18T20:01:25.871Z,23.40
2018-05-18T20:03:53.570Z,23.40
2018-05-18T20:06:21.048Z,23.40
2018-05-18T20:08:48.552Z,23.40
2018-05-18T20:11:16.796Z,23.40
2018-05-18T20:13:44.341Z,23.40
2018-05-18T20:16:11.855Z,23.30
2018-05-18T20:18:39.329Z,23.30
2018-05-18T20:21:07.938Z,23.30
2018-05-18T20:23:35.388Z,23.30
2018-05-18T20:26:02.850Z,23.30
2018-05-18T20:28:30.372Z,23.40
2018-05-18T20:30:58.641Z,23.40
2018-05-18T20:33:26.114Z,23.40
2018-05-18T20:35:54.461Z,23.40
2018-05-18T20:38:22.702Z,23.40
2018-05-18T20:40:50.183Z,23.40
2018-05-18T20:43:17.738Z,23.40
2018-05-18T20:45:45.209Z,23.40
2018-05-18T20:48:12.772Z,23.40
2018-05-18T20:50:40.347Z,23.40
2018-05-18T20:53:08.630Z,23.40
2018-05-18T20:55:36.887Z,23.50
2018-05-18T20:58:04.395Z,23.50
2018-05-18T21:00:31.842Z,23.50
2018-05-18T21:02:59.363Z,23.50
2018-05-18T21:05:27.185Z,23.50
2018-05-18T21:07:54.660Z,23.50
2018-05-18T21:10:22.129Z,23.50
2018-05-18T21:12:49.648Z,23.50
2018-05-18T21:15:17.127Z,23.50
2018-05-18T21:17:44.569Z,23.50
2018-05-18T21:20:12.130Z,23.50
2018-05-18T21:22:39.595Z,23.50
2018-05-18T21:25:07.185Z,23.40
2018-05-18T21:27:34.792Z,23.40
2018-05-18T21:30:02.329Z,23.40
2018-05-18T21:32:30.614Z,23.40
2018-05-18T21:34:58.913Z,23.40
2018-05-18T21:37:26.424Z,23.40
2018-05-18T21:39:53.939Z,23.40
2018-05-18T21:42:21.555Z,23.40
2018-05-18T21:44:49.029Z,23.40
2018-05-18T21:47:17.278Z,23.40
2018-05-18T21:49:44.795Z,23.40
2018-05-18T21:52:12.328Z,23.40
2018-05-18T21:54:39.775Z,23.40
2018-05-18T21:57:08.080Z,23.40
2018-05-18T21:59:36.291Z,23.40
2018-05-18T22:02:03.755Z,23.40
2018-05-18T22:04:31.331Z,23.40
2018-05-18T22:06:58.892Z,23.40
2018-05-18T22:09:26.448Z,23.40
2018-05-18T22:11:54.031Z,23.10
2018-05-18T22:14:22.264Z,23.40
2018-05-18T22:16:49.788Z,23.40
2018-05-18T22:19:17.302Z,23.40
2018-05-18T22:21:44.739Z,23.40
2018-05-18T22:24:13.021Z,23.40
2018-05-18T22:26:40.499Z,23.40
2018-05-18T22:29:08.724Z,23.40
2018-05-18T22:31:36.244Z,23.30
2018-05-18T22:34:04.470Z,23.40
2018-05-18T22:36:31.931Z,23.40
2018-05-18T22:38:59.452Z,23.40
2018-05-18T22:41:26.900Z,23.30
2018-05-18T22:43:54.525Z,23.40
2018-05-18T22:46:22.001Z,23.40
2018-05-18T22:48:50.272Z,23.40
2018-05-18T22:51:18.660Z,23.40
2018-05-18T22:53:46.891Z,23.40
2018-05-18T22:56:14.355Z,23.30
2018-05-18T22:58:41.943Z,23.30
2018-05-18T23:01:09.411Z,23.30
2018-05-18T23:03:37.636Z,23.30
2018-05-18T23:06:05.188Z,23.30
2018-05-18T23:08:32.642Z,23.30
2018-05-18T23:11:00.098Z,23.30
2018-05-18T23:13:27.728Z,23.30
2018-05-18T23:15:56.105Z,23.30
2018-05-18T23:18:23.618Z,23.30
2018-05-18T23:20:51.156Z,23.30
2018-05-18T23:23:18.632Z,23.30
2018-05-18T23:25:46.230Z,23.30
2018-05-18T23:28:13.790Z,23.30
2018-05-18T23:30:42.000Z,23.30
2018-05-18T23:33:09.475Z,23.30
2018-05-18T23:35:37.004Z,23.30
2018-05-18T23:38:04.478Z,23.30
2018-05-18T23:40:31.949Z,23.30
2018-05-18T23:42:59.540Z,23.30
2018-05-18T23:45:28.553Z,23.20
2018-05-18T23:47:56.778Z,23.30
2018-05-18T23:50:24.363Z,23.20
2018-05-18T23:52:51.843Z,23.20
2018-05-18T23:55:19.345Z,23.20
2018-05-18T23:57:46.856Z,23.20
